sensor_id;sensor_type;location;lat;lon;timestamp;temperature;humidity
69546;SHT31;56766;52.260;20.746;2022-07-22T00:00:39;18.68;74.24
69546;SHT31;56766;52.260;20.746;2022-07-22T00:03:06;18.65;74.53
69546;SHT31;56766;52.260;20.746;2022-07-22T00:05:32;18.65;74.60
69546;SHT31;56766;52.260;20.746;2022-07-22T00:07:59;18.65;74.50
69546;SHT31;56766;52.260;20.746;2022-07-22T00:10:26;18.66;74.04
69546;SHT31;56766;52.260;20.746;2022-07-22T00:12:53;18.68;74.06
69546;SHT31;56766;52.260;20.746;2022-07-22T00:15:20;18.69;74.22
69546;SHT31;56766;52.260;20.746;2022-07-22T00:17:46;18.67;74.36
69546;SHT31;56766;52.260;20.746;2022-07-22T00:20:13;18.63;74.56
69546;SHT31;56766;52.260;20.746;2022-07-22T00:22:40;18.57;74.95
69546;SHT31;56766;52.260;20.746;2022-07-22T00:25:07;18.57;75.08
69546;SHT31;56766;52.260;20.746;2022-07-22T00:27:34;18.53;75.31
69546;SHT31;56766;52.260;20.746;2022-07-22T00:30:01;18.51;75.51
69546;SHT31;56766;52.260;20.746;2022-07-22T00:32:29;18.48;75.56
69546;SHT31;56766;52.260;20.746;2022-07-22T00:34:55;18.52;75.48
69546;SHT31;56766;52.260;20.746;2022-07-22T00:37:22;18.56;75.31
69546;SHT31;56766;52.260;20.746;2022-07-22T00:39:49;18.58;75.08
69546;SHT31;56766;52.260;20.746;2022-07-22T00:42:15;18.60;74.79
69546;SHT31;56766;52.260;20.746;2022-07-22T00:44:42;18.59;74.87
69546;SHT31;56766;52.260;20.746;2022-07-22T00:47:09;18.61;75.21
69546;SHT31;56766;52.260;20.746;2022-07-22T00:49:37;18.63;75.57
69546;SHT31;56766;52.260;20.746;2022-07-22T00:52:04;18.67;75.74
69546;SHT31;56766;52.260;20.746;2022-07-22T00:54:32;18.69;75.70
69546;SHT31;56766;52.260;20.746;2022-07-22T00:57:00;18.72;75.67
69546;SHT31;56766;52.260;20.746;2022-07-22T00:59:27;18.75;75.67
69546;SHT31;56766;52.260;20.746;2022-07-22T01:01:53;18.77;75.61
69546;SHT31;56766;52.260;20.746;2022-07-22T01:04:20;18.78;75.61
69546;SHT31;56766;52.260;20.746;2022-07-22T01:06:47;18.78;75.30
69546;SHT31;56766;52.260;20.746;2022-07-22T01:09:14;18.78;74.91
69546;SHT31;56766;52.260;20.746;2022-07-22T01:11:41;18.76;74.70
69546;SHT31;56766;52.260;20.746;2022-07-22T01:14:09;18.74;74.65
69546;SHT31;56766;52.260;20.746;2022-07-22T01:16:36;18.74;74.64
69546;SHT31;56766;52.260;20.746;2022-07-22T01:19:04;18.75;74.73
69546;SHT31;56766;52.260;20.746;2022-07-22T01:21:32;18.75;74.61
69546;SHT31;56766;52.260;20.746;2022-07-22T01:23:59;18.76;74.47
69546;SHT31;56766;52.260;20.746;2022-07-22T01:26:26;18.75;74.38
69546;SHT31;56766;52.260;20.746;2022-07-22T01:28:53;18.73;74.14
69546;SHT31;56766;52.260;20.746;2022-07-22T01:31:20;18.67;74.57
69546;SHT31;56766;52.260;20.746;2022-07-22T01:33:47;18.64;74.81
69546;SHT31;56766;52.260;20.746;2022-07-22T01:36:14;18.63;74.91
69546;SHT31;56766;52.260;20.746;2022-07-22T01:38:41;18.64;74.75
69546;SHT31;56766;52.260;20.746;2022-07-22T01:41:07;18.64;74.68
69546;SHT31;56766;52.260;20.746;2022-07-22T01:43:34;18.65;74.68
69546;SHT31;56766;52.260;20.746;2022-07-22T01:46:02;18.64;74.61
69546;SHT31;56766;52.260;20.746;2022-07-22T01:48:29;18.64;74.62
69546;SHT31;56766;52.260;20.746;2022-07-22T01:50:56;18.61;74.69
69546;SHT31;56766;52.260;20.746;2022-07-22T01:53:24;18.58;74.62
69546;SHT31;56766;52.260;20.746;2022-07-22T01:55:51;18.54;74.60
69546;SHT31;56766;52.260;20.746;2022-07-22T01:58:18;18.45;74.85
69546;SHT31;56766;52.260;20.746;2022-07-22T02:00:45;18.34;75.15
69546;SHT31;56766;52.260;20.746;2022-07-22T02:03:12;18.29;75.21
69546;SHT31;56766;52.260;20.746;2022-07-22T02:05:39;18.28;75.40
69546;SHT31;56766;52.260;20.746;2022-07-22T02:08:09;18.29;75.41
69546;SHT31;56766;52.260;20.746;2022-07-22T02:10:37;18.25;75.76
69546;SHT31;56766;52.260;20.746;2022-07-22T02:13:05;18.16;75.72
69546;SHT31;56766;52.260;20.746;2022-07-22T02:15:32;18.14;75.91
69546;SHT31;56766;52.260;20.746;2022-07-22T02:18:00;18.08;76.45
69546;SHT31;56766;52.260;20.746;2022-07-22T02:20:27;18.09;76.05
69546;SHT31;56766;52.260;20.746;2022-07-22T02:22:53;18.09;76.20
69546;SHT31;56766;52.260;20.746;2022-07-22T02:25:20;18.11;76.20
69546;SHT31;56766;52.260;20.746;2022-07-22T02:27:46;18.12;75.88
69546;SHT31;56766;52.260;20.746;2022-07-22T02:30:13;18.11;75.87
69546;SHT31;56766;52.260;20.746;2022-07-22T02:32:40;18.04;75.68
69546;SHT31;56766;52.260;20.746;2022-07-22T02:35:07;17.93;75.80
69546;SHT31;56766;52.260;20.746;2022-07-22T02:37:34;17.85;75.70
69546;SHT31;56766;52.260;20.746;2022-07-22T02:40:01;17.82;75.96
69546;SHT31;56766;52.260;20.746;2022-07-22T02:42:27;17.85;76.06
69546;SHT31;56766;52.260;20.746;2022-07-22T02:44:54;17.85;76.23
69546;SHT31;56766;52.260;20.746;2022-07-22T02:47:21;17.86;76.36
69546;SHT31;56766;52.260;20.746;2022-07-22T02:49:47;17.80;76.82
69546;SHT31;56766;52.260;20.746;2022-07-22T02:52:14;17.70;76.78
69546;SHT31;56766;52.260;20.746;2022-07-22T02:54:41;17.66;77.03
69546;SHT31;56766;52.260;20.746;2022-07-22T02:57:08;17.64;77.15
69546;SHT31;56766;52.260;20.746;2022-07-22T02:59:35;17.68;77.47
69546;SHT31;56766;52.260;20.746;2022-07-22T03:02:03;17.69;77.49
69546;SHT31;56766;52.260;20.746;2022-07-22T03:04:29;17.72;77.35
69546;SHT31;56766;52.260;20.746;2022-07-22T03:06:56;17.76;77.44
69546;SHT31;56766;52.260;20.746;2022-07-22T03:09:23;17.71;77.48
69546;SHT31;56766;52.260;20.746;2022-07-22T03:11:49;17.67;77.10
69546;SHT31;56766;52.260;20.746;2022-07-22T03:14:16;17.66;77.04
69546;SHT31;56766;52.260;20.746;2022-07-22T03:16:45;17.68;76.96
69546;SHT31;56766;52.260;20.746;2022-07-22T03:19:11;17.71;76.88
69546;SHT31;56766;52.260;20.746;2022-07-22T03:21:38;17.75;76.89
69546;SHT31;56766;52.260;20.746;2022-07-22T03:24:05;17.79;76.90
69546;SHT31;56766;52.260;20.746;2022-07-22T03:26:31;17.88;76.94
69546;SHT31;56766;52.260;20.746;2022-07-22T03:28:58;17.98;76.84
69546;SHT31;56766;52.260;20.746;2022-07-22T03:31:25;18.04;76.59
69546;SHT31;56766;52.260;20.746;2022-07-22T03:33:52;18.14;76.39
69546;SHT31;56766;52.260;20.746;2022-07-22T03:36:18;18.25;76.48
69546;SHT31;56766;52.260;20.746;2022-07-22T03:38:45;18.51;76.42
69546;SHT31;56766;52.260;20.746;2022-07-22T03:41:12;18.80;75.88
69546;SHT31;56766;52.260;20.746;2022-07-22T03:43:38;18.94;75.50
69546;SHT31;56766;52.260;20.746;2022-07-22T03:46:05;19.01;75.51
69546;SHT31;56766;52.260;20.746;2022-07-22T03:48:31;18.99;75.76
69546;SHT31;56766;52.260;20.746;2022-07-22T03:50:58;19.03;75.80
69546;SHT31;56766;52.260;20.746;2022-07-22T03:53:25;19.14;75.30
69546;SHT31;56766;52.260;20.746;2022-07-22T03:55:51;19.26;74.92
69546;SHT31;56766;52.260;20.746;2022-07-22T03:58:18;19.37;74.70
69546;SHT31;56766;52.260;20.746;2022-07-22T04:00:45;19.39;74.74
69546;SHT31;56766;52.260;20.746;2022-07-22T04:03:12;19.49;74.75
69546;SHT31;56766;52.260;20.746;2022-07-22T04:05:38;19.60;74.55
69546;SHT31;56766;52.260;20.746;2022-07-22T04:08:05;19.69;74.31
69546;SHT31;56766;52.260;20.746;2022-07-22T04:10:32;19.80;73.99
69546;SHT31;56766;52.260;20.746;2022-07-22T04:12:59;19.89;73.88
69546;SHT31;56766;52.260;20.746;2022-07-22T04:15:25;19.86;74.02
69546;SHT31;56766;52.260;20.746;2022-07-22T04:17:52;19.89;73.75
69546;SHT31;56766;52.260;20.746;2022-07-22T04:20:19;19.99;73.77
69546;SHT31;56766;52.260;20.746;2022-07-22T04:22:46;20.07;74.12
69546;SHT31;56766;52.260;20.746;2022-07-22T04:25:12;20.19;73.69
69546;SHT31;56766;52.260;20.746;2022-07-22T04:27:40;20.29;73.73
69546;SHT31;56766;52.260;20.746;2022-07-22T04:30:07;20.41;73.75
69546;SHT31;56766;52.260;20.746;2022-07-22T04:32:34;20.58;73.80
69546;SHT31;56766;52.260;20.746;2022-07-22T04:35:03;20.87;73.69
69546;SHT31;56766;52.260;20.746;2022-07-22T04:37:31;21.12;73.81
69546;SHT31;56766;52.260;20.746;2022-07-22T04:39:57;21.46;73.15
69546;SHT31;56766;52.260;20.746;2022-07-22T04:42:24;21.83;73.12
69546;SHT31;56766;52.260;20.746;2022-07-22T04:44:51;22.26;72.74
69546;SHT31;56766;52.260;20.746;2022-07-22T04:47:17;22.69;72.03
69546;SHT31;56766;52.260;20.746;2022-07-22T04:49:44;22.95;71.47
69546;SHT31;56766;52.260;20.746;2022-07-22T04:52:10;23.27;70.80
69546;SHT31;56766;52.260;20.746;2022-07-22T04:54:37;23.68;69.71
69546;SHT31;56766;52.260;20.746;2022-07-22T04:57:04;24.04;68.65
69546;SHT31;56766;52.260;20.746;2022-07-22T04:59:30;24.36;67.84
69546;SHT31;56766;52.260;20.746;2022-07-22T05:01:57;24.63;67.14
69546;SHT31;56766;52.260;20.746;2022-07-22T05:04:24;24.87;66.41
69546;SHT31;56766;52.260;20.746;2022-07-22T05:06:50;25.07;65.67
69546;SHT31;56766;52.260;20.746;2022-07-22T05:09:17;25.26;65.11
69546;SHT31;56766;52.260;20.746;2022-07-22T05:11:43;25.41;64.72
69546;SHT31;56766;52.260;20.746;2022-07-22T05:14:10;25.51;64.19
69546;SHT31;56766;52.260;20.746;2022-07-22T05:16:37;25.62;63.69
69546;SHT31;56766;52.260;20.746;2022-07-22T05:19:05;25.66;63.28
69546;SHT31;56766;52.260;20.746;2022-07-22T05:21:33;25.72;63.42
69546;SHT31;56766;52.260;20.746;2022-07-22T05:24:00;25.82;62.86
69546;SHT31;56766;52.260;20.746;2022-07-22T05:26:26;25.86;62.51
69546;SHT31;56766;52.260;20.746;2022-07-22T05:28:55;25.91;62.52
69546;SHT31;56766;52.260;20.746;2022-07-22T05:31:22;25.96;62.16
69546;SHT31;56766;52.260;20.746;2022-07-22T05:33:49;26.01;61.86
69546;SHT31;56766;52.260;20.746;2022-07-22T05:36:16;26.05;61.62
69546;SHT31;56766;52.260;20.746;2022-07-22T05:38:42;26.11;61.50
69546;SHT31;56766;52.260;20.746;2022-07-22T05:41:09;26.15;61.23
69546;SHT31;56766;52.260;20.746;2022-07-22T05:43:36;26.22;61.13
69546;SHT31;56766;52.260;20.746;2022-07-22T05:46:02;26.24;60.83
69546;SHT31;56766;52.260;20.746;2022-07-22T05:48:29;26.23;60.91
69546;SHT31;56766;52.260;20.746;2022-07-22T05:50:56;26.29;60.84
69546;SHT31;56766;52.260;20.746;2022-07-22T05:53:23;26.39;60.57
69546;SHT31;56766;52.260;20.746;2022-07-22T05:55:51;26.43;60.48
69546;SHT31;56766;52.260;20.746;2022-07-22T05:58:17;26.47;60.49
69546;SHT31;56766;52.260;20.746;2022-07-22T06:00:44;26.52;60.26
69546;SHT31;56766;52.260;20.746;2022-07-22T06:03:13;26.63;60.32
69546;SHT31;56766;52.260;20.746;2022-07-22T06:05:40;26.72;59.50
69546;SHT31;56766;52.260;20.746;2022-07-22T06:08:07;26.77;59.54
69546;SHT31;56766;52.260;20.746;2022-07-22T06:10:34;26.85;59.44
69546;SHT31;56766;52.260;20.746;2022-07-22T06:13:00;26.94;59.32
69546;SHT31;56766;52.260;20.746;2022-07-22T06:15:27;27.04;58.93
69546;SHT31;56766;52.260;20.746;2022-07-22T06:17:53;27.12;58.84
69546;SHT31;56766;52.260;20.746;2022-07-22T06:20:20;27.21;58.35
69546;SHT31;56766;52.260;20.746;2022-07-22T06:22:47;27.30;58.20
69546;SHT31;56766;52.260;20.746;2022-07-22T06:25:14;27.32;57.41
69546;SHT31;56766;52.260;20.746;2022-07-22T06:27:41;27.30;56.69
69546;SHT31;56766;52.260;20.746;2022-07-22T06:30:08;27.27;56.49
69546;SHT31;56766;52.260;20.746;2022-07-22T06:32:35;27.32;56.63
69546;SHT31;56766;52.260;20.746;2022-07-22T06:35:03;27.37;56.51
69546;SHT31;56766;52.260;20.746;2022-07-22T06:37:30;27.40;56.65
69546;SHT31;56766;52.260;20.746;2022-07-22T06:39:57;27.44;56.59
69546;SHT31;56766;52.260;20.746;2022-07-22T06:42:23;27.48;56.60
69546;SHT31;56766;52.260;20.746;2022-07-22T06:44:51;27.52;56.07
69546;SHT31;56766;52.260;20.746;2022-07-22T06:47:18;27.56;55.65
69546;SHT31;56766;52.260;20.746;2022-07-22T06:49:45;27.61;54.21
69546;SHT31;56766;52.260;20.746;2022-07-22T06:52:11;27.69;53.83
69546;SHT31;56766;52.260;20.746;2022-07-22T06:54:38;27.77;53.59
69546;SHT31;56766;52.260;20.746;2022-07-22T06:57:05;27.84;54.10
69546;SHT31;56766;52.260;20.746;2022-07-22T06:59:31;27.84;54.10
69546;SHT31;56766;52.260;20.746;2022-07-22T07:01:58;27.82;53.73
69546;SHT31;56766;52.260;20.746;2022-07-22T07:04:25;27.84;53.52
69546;SHT31;56766;52.260;20.746;2022-07-22T07:06:51;27.87;53.42
69546;SHT31;56766;52.260;20.746;2022-07-22T07:09:18;27.86;52.87
69546;SHT31;56766;52.260;20.746;2022-07-22T07:11:45;27.88;52.95
69546;SHT31;56766;52.260;20.746;2022-07-22T07:14:11;27.93;53.17
69546;SHT31;56766;52.260;20.746;2022-07-22T07:16:38;27.99;53.06
69546;SHT31;56766;52.260;20.746;2022-07-22T07:19:05;28.03;53.06
69546;SHT31;56766;52.260;20.746;2022-07-22T07:21:31;28.08;52.49
69546;SHT31;56766;52.260;20.746;2022-07-22T07:23:58;28.18;52.86
69546;SHT31;56766;52.260;20.746;2022-07-22T07:26:24;28.28;52.48
69546;SHT31;56766;52.260;20.746;2022-07-22T07:28:51;28.38;52.89
69546;SHT31;56766;52.260;20.746;2022-07-22T07:31:18;28.49;52.48
69546;SHT31;56766;52.260;20.746;2022-07-22T07:33:44;28.61;52.30
69546;SHT31;56766;52.260;20.746;2022-07-22T07:36:11;28.69;52.15
69546;SHT31;56766;52.260;20.746;2022-07-22T07:38:38;28.80;51.45
69546;SHT31;56766;52.260;20.746;2022-07-22T07:41:04;28.88;51.43
69546;SHT31;56766;52.260;20.746;2022-07-22T07:43:31;28.99;51.58
69546;SHT31;56766;52.260;20.746;2022-07-22T07:45:58;29.09;51.44
69546;SHT31;56766;52.260;20.746;2022-07-22T07:48:25;29.18;51.41
69546;SHT31;56766;52.260;20.746;2022-07-22T07:50:52;29.30;51.57
69546;SHT31;56766;52.260;20.746;2022-07-22T07:53:19;29.39;50.71
69546;SHT31;56766;52.260;20.746;2022-07-22T07:55:46;29.46;50.39
69546;SHT31;56766;52.260;20.746;2022-07-22T07:58:13;29.53;50.47
69546;SHT31;56766;52.260;20.746;2022-07-22T08:00:39;29.58;50.14
69546;SHT31;56766;52.260;20.746;2022-07-22T08:03:09;29.65;50.49
69546;SHT31;56766;52.260;20.746;2022-07-22T08:05:37;29.76;50.22
69546;SHT31;56766;52.260;20.746;2022-07-22T08:08:06;29.89;50.20
69546;SHT31;56766;52.260;20.746;2022-07-22T08:10:34;30.00;50.13
69546;SHT31;56766;52.260;20.746;2022-07-22T08:13:01;30.09;50.06
69546;SHT31;56766;52.260;20.746;2022-07-22T08:15:29;30.20;49.59
69546;SHT31;56766;52.260;20.746;2022-07-22T08:17:58;30.32;49.47
69546;SHT31;56766;52.260;20.746;2022-07-22T08:20:26;30.40;49.79
69546;SHT31;56766;52.260;20.746;2022-07-22T08:22:54;30.52;49.59
69546;SHT31;56766;52.260;20.746;2022-07-22T08:25:21;30.62;48.57
69546;SHT31;56766;52.260;20.746;2022-07-22T08:27:48;30.70;48.99
69546;SHT31;56766;52.260;20.746;2022-07-22T08:30:16;30.88;49.48
69546;SHT31;56766;52.260;20.746;2022-07-22T08:32:44;31.05;48.65
69546;SHT31;56766;52.260;20.746;2022-07-22T08:35:11;31.14;48.00
69546;SHT31;56766;52.260;20.746;2022-07-22T08:37:38;31.13;47.09
69546;SHT31;56766;52.260;20.746;2022-07-22T08:40:07;31.10;46.14
69546;SHT31;56766;52.260;20.746;2022-07-22T08:42:39;31.05;46.19
69546;SHT31;56766;52.260;20.746;2022-07-22T08:45:09;31.10;46.99
69546;SHT31;56766;52.260;20.746;2022-07-22T08:47:37;31.27;46.87
69546;SHT31;56766;52.260;20.746;2022-07-22T08:50:05;31.40;46.57
69546;SHT31;56766;52.260;20.746;2022-07-22T08:52:32;31.51;46.70
69546;SHT31;56766;52.260;20.746;2022-07-22T08:54:58;31.71;46.45
69546;SHT31;56766;52.260;20.746;2022-07-22T08:57:25;31.87;46.19
69546;SHT31;56766;52.260;20.746;2022-07-22T08:59:56;32.00;46.01
69546;SHT31;56766;52.260;20.746;2022-07-22T09:02:26;32.04;45.01
69546;SHT31;56766;52.260;20.746;2022-07-22T09:04:58;31.99;45.34
69546;SHT31;56766;52.260;20.746;2022-07-22T09:07:35;32.05;44.73
69546;SHT31;56766;52.260;20.746;2022-07-22T09:10:09;32.13;45.16
69546;SHT31;56766;52.260;20.746;2022-07-22T09:13:10;32.14;44.70
69546;SHT31;56766;52.260;20.746;2022-07-22T09:15:45;32.14;44.62
69546;SHT31;56766;52.260;20.746;2022-07-22T09:18:17;32.24;44.63
69546;SHT31;56766;52.260;20.746;2022-07-22T09:20:43;32.42;44.39
69546;SHT31;56766;52.260;20.746;2022-07-22T09:23:18;32.51;44.39
69546;SHT31;56766;52.260;20.746;2022-07-22T09:25:49;32.58;43.74
69546;SHT31;56766;52.260;20.746;2022-07-22T09:28:20;32.55;43.74
69546;SHT31;56766;52.260;20.746;2022-07-22T09:33:15;32.65;44.54
69546;SHT31;56766;52.260;20.746;2022-07-22T09:36:03;32.60;42.39
69546;SHT31;56766;52.260;20.746;2022-07-22T09:38:30;32.49;42.99
69546;SHT31;56766;52.260;20.746;2022-07-22T09:40:59;32.61;42.87
69546;SHT31;56766;52.260;20.746;2022-07-22T09:43:25;32.72;43.56
69546;SHT31;56766;52.260;20.746;2022-07-22T09:45:58;32.94;44.65
69546;SHT31;56766;52.260;20.746;2022-07-22T09:48:26;33.15;42.48
69546;SHT31;56766;52.260;20.746;2022-07-22T09:50:55;33.08;42.42
69546;SHT31;56766;52.260;20.746;2022-07-22T09:53:26;33.04;42.70
69546;SHT31;56766;52.260;20.746;2022-07-22T09:55:57;33.00;42.56
69546;SHT31;56766;52.260;20.746;2022-07-22T09:58:25;32.99;43.25
69546;SHT31;56766;52.260;20.746;2022-07-22T10:01:12;33.14;41.96
69546;SHT31;56766;52.260;20.746;2022-07-22T10:03:42;33.29;41.60
69546;SHT31;56766;52.260;20.746;2022-07-22T10:06:11;33.41;41.36
69546;SHT31;56766;52.260;20.746;2022-07-22T10:08:38;33.55;42.16
69546;SHT31;56766;52.260;20.746;2022-07-22T10:11:07;33.81;42.93
69546;SHT31;56766;52.260;20.746;2022-07-22T10:13:34;34.01;41.97
69546;SHT31;56766;52.260;20.746;2022-07-22T10:16:06;34.07;41.91
69546;SHT31;56766;52.260;20.746;2022-07-22T10:18:34;34.09;41.71
69546;SHT31;56766;52.260;20.746;2022-07-22T10:21:07;34.18;41.23
69546;SHT31;56766;52.260;20.746;2022-07-22T10:23:36;34.12;40.61
69546;SHT31;56766;52.260;20.746;2022-07-22T10:29:39;34.06;40.82
69546;SHT31;56766;52.260;20.746;2022-07-22T10:40:13;34.43;41.38
69546;SHT31;56766;52.260;20.746;2022-07-22T10:45:33;34.57;39.00
69546;SHT31;56766;52.260;20.746;2022-07-22T10:48:08;34.47;38.60
69546;SHT31;56766;52.260;20.746;2022-07-22T10:50:42;34.34;38.63
69546;SHT31;56766;52.260;20.746;2022-07-22T10:53:24;34.35;39.59
69546;SHT31;56766;52.260;20.746;2022-07-22T10:56:28;34.47;39.58
69546;SHT31;56766;52.260;20.746;2022-07-22T10:59:16;34.47;38.69
69546;SHT31;56766;52.260;20.746;2022-07-22T11:01:49;34.51;39.15
69546;SHT31;56766;52.260;20.746;2022-07-22T11:04:20;34.66;40.23
69546;SHT31;56766;52.260;20.746;2022-07-22T11:06:51;34.88;40.37
69546;SHT31;56766;52.260;20.746;2022-07-22T11:09:32;35.06;39.56
69546;SHT31;56766;52.260;20.746;2022-07-22T11:12:00;35.11;37.93
69546;SHT31;56766;52.260;20.746;2022-07-22T11:14:30;35.15;37.84
69546;SHT31;56766;52.260;20.746;2022-07-22T11:17:10;35.26;39.16
69546;SHT31;56766;52.260;20.746;2022-07-22T11:19:41;35.45;38.70
69546;SHT31;56766;52.260;20.746;2022-07-22T11:22:10;35.60;38.57
69546;SHT31;56766;52.260;20.746;2022-07-22T11:24:40;35.61;37.19
69546;SHT31;56766;52.260;20.746;2022-07-22T11:27:16;35.48;37.55
69546;SHT31;56766;52.260;20.746;2022-07-22T11:29:48;35.34;37.52
69546;SHT31;56766;52.260;20.746;2022-07-22T11:32:17;35.17;37.18
69546;SHT31;56766;52.260;20.746;2022-07-22T11:34:45;35.02;37.47
69546;SHT31;56766;52.260;20.746;2022-07-22T11:37:14;34.90;37.61
69546;SHT31;56766;52.260;20.746;2022-07-22T11:39:45;34.80;37.42
69546;SHT31;56766;52.260;20.746;2022-07-22T11:42:13;34.76;37.54
69546;SHT31;56766;52.260;20.746;2022-07-22T11:44:39;34.76;37.72
69546;SHT31;56766;52.260;20.746;2022-07-22T11:47:09;35.02;38.04
69546;SHT31;56766;52.260;20.746;2022-07-22T11:49:37;35.28;38.00
69546;SHT31;56766;52.260;20.746;2022-07-22T11:52:09;35.60;38.23
69546;SHT31;56766;52.260;20.746;2022-07-22T11:54:41;35.86;36.22
69546;SHT31;56766;52.260;20.746;2022-07-22T11:57:11;35.85;36.63
69546;SHT31;56766;52.260;20.746;2022-07-22T11:59:38;35.81;36.58
69546;SHT31;56766;52.260;20.746;2022-07-22T12:02:07;35.76;35.82
69546;SHT31;56766;52.260;20.746;2022-07-22T12:04:36;35.65;35.99
69546;SHT31;56766;52.260;20.746;2022-07-22T12:07:05;35.67;36.04
69546;SHT31;56766;52.260;20.746;2022-07-22T12:09:36;35.78;36.66
69546;SHT31;56766;52.260;20.746;2022-07-22T12:12:04;36.06;35.69
69546;SHT31;56766;52.260;20.746;2022-07-22T12:14:33;36.40;35.47
69546;SHT31;56766;52.260;20.746;2022-07-22T12:17:07;36.60;35.23
69546;SHT31;56766;52.260;20.746;2022-07-22T12:19:37;36.57;35.28
69546;SHT31;56766;52.260;20.746;2022-07-22T12:22:20;36.42;35.18
69546;SHT31;56766;52.260;20.746;2022-07-22T12:25:00;36.22;35.38
69546;SHT31;56766;52.260;20.746;2022-07-22T12:27:28;36.18;35.07
69546;SHT31;56766;52.260;20.746;2022-07-22T12:29:56;36.04;35.23
69546;SHT31;56766;52.260;20.746;2022-07-22T12:35:00;35.62;35.95
69546;SHT31;56766;52.260;20.746;2022-07-22T12:37:42;35.60;36.58
69546;SHT31;56766;52.260;20.746;2022-07-22T12:40:18;35.51;36.31
69546;SHT31;56766;52.260;20.746;2022-07-22T12:43:06;35.31;35.85
69546;SHT31;56766;52.260;20.746;2022-07-22T12:45:36;35.12;36.46
69546;SHT31;56766;52.260;20.746;2022-07-22T12:53:15;35.61;36.57
69546;SHT31;56766;52.260;20.746;2022-07-22T12:55:46;35.42;35.72
69546;SHT31;56766;52.260;20.746;2022-07-22T12:58:33;35.28;35.46
69546;SHT31;56766;52.260;20.746;2022-07-22T13:01:01;35.35;36.80
69546;SHT31;56766;52.260;20.746;2022-07-22T13:03:28;35.56;37.22
69546;SHT31;56766;52.260;20.746;2022-07-22T13:08:44;36.04;37.19
69546;SHT31;56766;52.260;20.746;2022-07-22T13:11:11;36.13;37.13
69546;SHT31;56766;52.260;20.746;2022-07-22T13:13:39;36.14;36.73
69546;SHT31;56766;52.260;20.746;2022-07-22T13:16:06;36.09;35.87
69546;SHT31;56766;52.260;20.746;2022-07-22T13:18:33;35.98;36.63
69546;SHT31;56766;52.260;20.746;2022-07-22T13:20:59;35.81;36.07
69546;SHT31;56766;52.260;20.746;2022-07-22T13:23:26;35.46;36.19
69546;SHT31;56766;52.260;20.746;2022-07-22T13:25:53;35.14;36.67
69546;SHT31;56766;52.260;20.746;2022-07-22T13:28:20;35.07;37.03
69546;SHT31;56766;52.260;20.746;2022-07-22T13:30:46;35.13;37.12
69546;SHT31;56766;52.260;20.746;2022-07-22T13:33:13;35.23;36.80
69546;SHT31;56766;52.260;20.746;2022-07-22T13:35:42;35.19;36.29
69546;SHT31;56766;52.260;20.746;2022-07-22T13:38:09;35.23;36.91
69546;SHT31;56766;52.260;20.746;2022-07-22T13:40:36;35.19;36.14
69546;SHT31;56766;52.260;20.746;2022-07-22T13:43:02;35.08;36.38
69546;SHT31;56766;52.260;20.746;2022-07-22T13:45:29;34.87;36.20
69546;SHT31;56766;52.260;20.746;2022-07-22T13:47:55;34.72;37.03
69546;SHT31;56766;52.260;20.746;2022-07-22T13:50:42;34.69;37.53
69546;SHT31;56766;52.260;20.746;2022-07-22T13:53:09;34.58;37.65
69546;SHT31;56766;52.260;20.746;2022-07-22T13:55:38;34.53;37.41
69546;SHT31;56766;52.260;20.746;2022-07-22T13:58:07;34.35;37.24
69546;SHT31;56766;52.260;20.746;2022-07-22T14:00:34;34.05;38.07
69546;SHT31;56766;52.260;20.746;2022-07-22T14:03:00;33.97;38.18
69546;SHT31;56766;52.260;20.746;2022-07-22T14:05:27;33.98;38.98
69546;SHT31;56766;52.260;20.746;2022-07-22T14:07:54;33.87;38.66
69546;SHT31;56766;52.260;20.746;2022-07-22T14:10:20;33.70;38.87
69546;SHT31;56766;52.260;20.746;2022-07-22T14:12:47;33.63;39.02
69546;SHT31;56766;52.260;20.746;2022-07-22T14:15:14;33.71;39.34
69546;SHT31;56766;52.260;20.746;2022-07-22T14:17:41;33.85;39.29
69546;SHT31;56766;52.260;20.746;2022-07-22T14:20:09;33.90;38.47
69546;SHT31;56766;52.260;20.746;2022-07-22T14:22:36;33.95;38.84
69546;SHT31;56766;52.260;20.746;2022-07-22T14:25:04;34.04;39.15
69546;SHT31;56766;52.260;20.746;2022-07-22T14:27:49;34.15;39.05
69546;SHT31;56766;52.260;20.746;2022-07-22T14:30:16;34.19;37.84
69546;SHT31;56766;52.260;20.746;2022-07-22T14:32:42;34.17;38.00
69546;SHT31;56766;52.260;20.746;2022-07-22T14:35:09;34.16;37.81
69546;SHT31;56766;52.260;20.746;2022-07-22T14:37:36;34.19;37.88
69546;SHT31;56766;52.260;20.746;2022-07-22T14:40:03;34.21;38.28
69546;SHT31;56766;52.260;20.746;2022-07-22T14:42:30;34.03;37.69
69546;SHT31;56766;52.260;20.746;2022-07-22T14:44:57;33.78;38.18
69546;SHT31;56766;52.260;20.746;2022-07-22T14:47:24;33.51;37.97
69546;SHT31;56766;52.260;20.746;2022-07-22T14:49:51;33.21;38.57
69546;SHT31;56766;52.260;20.746;2022-07-22T14:52:17;33.09;39.34
69546;SHT31;56766;52.260;20.746;2022-07-22T14:54:44;33.14;39.14
69546;SHT31;56766;52.260;20.746;2022-07-22T14:57:10;33.10;38.77
69546;SHT31;56766;52.260;20.746;2022-07-22T14:59:37;32.93;39.11
69546;SHT31;56766;52.260;20.746;2022-07-22T15:02:04;32.89;38.77
69546;SHT31;56766;52.260;20.746;2022-07-22T15:04:30;32.98;38.80
69546;SHT31;56766;52.260;20.746;2022-07-22T15:06:57;33.03;38.83
69546;SHT31;56766;52.260;20.746;2022-07-22T15:09:24;33.11;38.47
69546;SHT31;56766;52.260;20.746;2022-07-22T15:11:51;33.16;38.42
69546;SHT31;56766;52.260;20.746;2022-07-22T15:14:18;33.18;39.09
69546;SHT31;56766;52.260;20.746;2022-07-22T15:16:45;33.04;38.82
69546;SHT31;56766;52.260;20.746;2022-07-22T15:19:12;32.85;38.88
69546;SHT31;56766;52.260;20.746;2022-07-22T15:21:39;32.77;39.29
69546;SHT31;56766;52.260;20.746;2022-07-22T15:24:06;32.82;39.47
69546;SHT31;56766;52.260;20.746;2022-07-22T15:26:32;32.87;39.21
69546;SHT31;56766;52.260;20.746;2022-07-22T15:28:59;32.93;39.17
69546;SHT31;56766;52.260;20.746;2022-07-22T15:31:26;33.01;38.55
69546;SHT31;56766;52.260;20.746;2022-07-22T15:33:54;33.10;38.17
69546;SHT31;56766;52.260;20.746;2022-07-22T15:36:21;33.06;38.08
69546;SHT31;56766;52.260;20.746;2022-07-22T15:38:47;32.93;38.69
69546;SHT31;56766;52.260;20.746;2022-07-22T15:41:14;32.78;39.09
69546;SHT31;56766;52.260;20.746;2022-07-22T15:43:41;32.66;39.30
69546;SHT31;56766;52.260;20.746;2022-07-22T15:46:08;32.59;39.45
69546;SHT31;56766;52.260;20.746;2022-07-22T15:48:36;32.51;39.26